createdAt,value
2019-03-17T00:00:18.935Z,49.4
2019-03-17T00:01:18.835Z,49.5
2019-03-17T00:02:18.758Z,49.7
2019-03-17T00:03:18.676Z,49.3
2019-03-17T00:04:31.937Z,49.6
2019-03-17T00:05:31.889Z,49.7
2019-03-17T00:06:31.781Z,49.3
2019-03-17T00:07:31.721Z,49
2019-03-17T00:08:31.635Z,49.5
2019-03-17T00:09:31.535Z,49.4
2019-03-17T00:10:31.933Z,49.2
2019-03-17T00:11:31.819Z,49.5
2019-03-17T00:12:32.316Z,49.6
2019-03-17T00:13:32.201Z,49.7
2019-03-17T00:14:32.099Z,49.9
2019-03-17T00:15:32.003Z,49.6
2019-03-17T00:16:31.893Z,49.4
2019-03-17T00:17:31.791Z,49.3
2019-03-17T00:18:31.695Z,49.5
2019-03-17T00:19:31.615Z,49.6
2019-03-17T00:20:32.027Z,49.3
2019-03-17T00:21:31.929Z,49.6
2019-03-17T00:22:31.835Z,49.4
2019-03-17T00:23:31.740Z,49.2
2019-03-17T00:24:31.680Z,49.3
2019-03-17T00:25:31.600Z,48.8
2019-03-17T00:26:31.495Z,48.8
2019-03-17T00:27:31.397Z,48.6
2019-03-17T00:28:31.297Z,48.5
2019-03-17T00:30:31.457Z,48.4
2019-03-17T00:31:31.354Z,48.9
2019-03-17T00:32:31.255Z,49
2019-03-17T00:33:31.155Z,49.2
2019-03-17T00:34:44.789Z,49.3
2019-03-17T00:35:44.701Z,49.2
2019-03-17T00:36:44.611Z,49.4
2019-03-17T00:37:44.512Z,49.4
2019-03-17T00:38:44.397Z,49.7
2019-03-17T00:39:44.307Z,49.7
2019-03-17T00:40:44.619Z,49.8
2019-03-17T00:41:44.519Z,49.7
2019-03-17T00:42:44.431Z,49.8
2019-03-17T00:43:44.321Z,50.1
2019-03-17T00:44:44.210Z,50.2
2019-03-17T00:45:44.125Z,49.7
2019-03-17T00:46:44.003Z,49.8
2019-03-17T00:47:43.889Z,49.9
2019-03-17T00:48:43.782Z,49.8
2019-03-17T00:49:43.662Z,49.7
2019-03-17T00:50:44.011Z,50
2019-03-17T00:51:43.913Z,50
2019-03-17T00:52:43.813Z,50
2019-03-17T00:53:43.707Z,49.9
2019-03-17T00:54:43.586Z,49.7
2019-03-17T00:55:43.499Z,49.9
2019-03-17T00:56:43.393Z,49.8
2019-03-17T00:57:43.297Z,50
2019-03-17T00:58:43.203Z,50.1
2019-03-17T00:59:43.100Z,50
2019-03-17T01:00:43.445Z,50.1
2019-03-17T01:01:43.358Z,49.9
2019-03-17T01:02:43.261Z,49.8
2019-03-17T01:03:43.159Z,49.9
2019-03-17T01:04:43.045Z,50
2019-03-17T01:05:56.410Z,49.2
2019-03-17T01:06:56.317Z,48.7
2019-03-17T01:07:56.209Z,48.7
2019-03-17T01:08:56.093Z,48.7
2019-03-17T01:09:56.006Z,48.5
2019-03-17T01:10:56.322Z,48.5
2019-03-17T01:11:56.232Z,49.3
2019-03-17T01:12:56.118Z,49.1
2019-03-17T01:13:56.031Z,49
2019-03-17T01:14:55.947Z,48.8
2019-03-17T01:15:55.833Z,48.7
2019-03-17T01:16:55.755Z,49
2019-03-17T01:17:55.644Z,48.8
2019-03-17T01:18:55.617Z,48.5
2019-03-17T01:19:55.480Z,48.7
2019-03-17T01:20:55.809Z,49.1
2019-03-17T01:21:55.723Z,49.3
2019-03-17T01:22:55.635Z,49.3
2019-03-17T01:23:55.507Z,49.6
2019-03-17T01:24:55.420Z,48.9
2019-03-17T01:25:55.353Z,48.9
2019-03-17T01:26:55.239Z,49.1
2019-03-17T01:27:55.145Z,49
2019-03-17T01:28:55.043Z,49.3
2019-03-17T01:29:57.702Z,49.2
2019-03-17T01:30:58.051Z,49.5
2019-03-17T01:31:57.941Z,49.3
2019-03-17T01:32:57.868Z,49.3
2019-03-17T01:33:57.755Z,49.3
2019-03-17T01:35:10.847Z,48.8
2019-03-17T01:36:10.744Z,48.7
2019-03-17T01:37:10.673Z,48.7
2019-03-17T01:38:10.596Z,48.4
2019-03-17T01:39:10.504Z,48.4
2019-03-17T01:40:10.401Z,48.6
2019-03-17T01:41:10.746Z,48.7
2019-03-17T01:42:10.729Z,48.9
2019-03-17T01:43:10.650Z,48.8
2019-03-17T01:44:10.545Z,48.7
2019-03-17T01:45:10.421Z,48.8
2019-03-17T01:46:10.391Z,48.6
2019-03-17T01:47:10.261Z,49
2019-03-17T01:48:10.151Z,49
2019-03-17T01:49:10.041Z,49.2
2019-03-17T01:50:09.947Z,49.4
2019-03-17T01:51:10.266Z,49.3
2019-03-17T01:52:10.155Z,49.3
2019-03-17T01:53:10.045Z,49.6
2019-03-17T01:54:09.969Z,49.4
2019-03-17T01:55:09.865Z,49.3
2019-03-17T01:56:09.763Z,48.7
2019-03-17T01:57:09.639Z,48.5
2019-03-17T01:58:09.537Z,48.7
2019-03-17T01:59:09.431Z,48.3
2019-03-17T02:00:09.338Z,48.5
2019-03-17T02:01:12.591Z,48.3
2019-03-17T02:02:12.498Z,48.5
2019-03-17T02:03:12.403Z,48.7
2019-03-17T02:04:12.309Z,48.3
2019-03-17T02:05:23.129Z,48.1
2019-03-17T02:06:23.047Z,48.6
2019-03-17T02:07:22.957Z,48.6
2019-03-17T02:08:22.850Z,48.8
2019-03-17T02:09:22.738Z,48.9
2019-03-17T02:10:22.644Z,48.6
2019-03-17T02:11:22.961Z,48.8
2019-03-17T02:12:22.848Z,48.8
2019-03-17T02:13:22.782Z,49
2019-03-17T02:14:22.683Z,49.1
2019-03-17T02:15:22.608Z,49.2
2019-03-17T02:16:22.477Z,49.2
2019-03-17T02:17:22.371Z,49.4
2019-03-17T02:18:22.269Z,49.6
2019-03-17T02:19:22.149Z,49.4
2019-03-17T02:20:22.045Z,49.4
2019-03-17T02:21:22.350Z,49.6
2019-03-17T02:22:23.004Z,49.6
2019-03-17T02:23:22.878Z,50
2019-03-17T02:24:22.766Z,50.1
2019-03-17T02:25:22.687Z,50.3
2019-03-17T02:26:22.587Z,50.6
2019-03-17T02:27:22.482Z,50.8
2019-03-17T02:28:22.369Z,50.8
2019-03-17T02:29:22.246Z,50.8
2019-03-17T02:30:22.238Z,50.5
2019-03-17T02:31:22.655Z,50.3
2019-03-17T02:32:22.574Z,50.5
2019-03-17T02:33:22.527Z,50.5
2019-03-17T02:34:22.459Z,50.1
2019-03-17T02:35:40.580Z,50.1
2019-03-17T02:36:40.676Z,50.1
2019-03-17T02:37:40.602Z,49.8
2019-03-17T02:38:40.544Z,49.7
2019-03-17T02:39:40.463Z,49.7
2019-03-17T02:40:40.418Z,49.9
2019-03-17T02:41:40.773Z,49.5
2019-03-17T02:42:40.720Z,49.4
2019-03-17T02:43:40.625Z,49.2
2019-03-17T02:44:40.541Z,49
2019-03-17T02:45:40.520Z,48.8
2019-03-17T02:46:40.445Z,49
2019-03-17T02:47:40.348Z,49.1
2019-03-17T02:48:40.282Z,49.5
2019-03-17T02:49:40.207Z,49.3
2019-03-17T02:50:40.124Z,49.4
2019-03-17T02:51:40.541Z,49.4
2019-03-17T02:52:40.612Z,49.7
2019-03-17T02:53:40.552Z,49.4
2019-03-17T02:54:40.480Z,49.5
2019-03-17T02:55:40.369Z,49.6
2019-03-17T02:56:40.369Z,49.8
2019-03-17T02:57:40.284Z,49.9
2019-03-17T02:58:40.212Z,50.2
2019-03-17T02:59:40.134Z,50.2
2019-03-17T03:00:40.045Z,50.3
2019-03-17T03:01:40.433Z,50.4
2019-03-17T03:02:40.398Z,50.4
2019-03-17T03:03:40.297Z,50.5
2019-03-17T03:04:40.202Z,50.7
2019-03-17T03:05:56.297Z,50.9
2019-03-17T03:06:56.197Z,50.9
2019-03-17T03:07:56.125Z,50.7
2019-03-17T03:08:56.040Z,50.6
2019-03-17T03:09:55.940Z,50.7
2019-03-17T03:10:55.874Z,50.7
2019-03-17T03:11:56.239Z,50.5
2019-03-17T03:12:56.199Z,50.4
2019-03-17T03:13:56.118Z,50.6
2019-03-17T03:14:56.046Z,50.7
2019-03-17T03:15:56.046Z,50.4
2019-03-17T03:16:55.958Z,50.2
2019-03-17T03:17:55.876Z,50.3
2019-03-17T03:18:55.814Z,50.5
2019-03-17T03:19:55.888Z,50.5
2019-03-17T03:20:55.802Z,50.7
2019-03-17T03:21:56.155Z,50.7
2019-03-17T03:22:56.086Z,50.9
2019-03-17T03:23:56.032Z,50.9
2019-03-17T03:24:55.933Z,50.6
2019-03-17T03:25:55.890Z,50.6
2019-03-17T03:26:55.817Z,50.6
2019-03-17T03:27:55.756Z,50.6
2019-03-17T03:28:55.758Z,50.5
2019-03-17T03:29:55.656Z,50.8
2019-03-17T03:30:55.585Z,50.6
2019-03-17T03:31:56.041Z,50.6
2019-03-17T03:32:56.235Z,50.4
2019-03-17T03:33:56.241Z,50.5
2019-03-17T03:34:56.271Z,50.6
2019-03-17T03:36:12.590Z,50.5
2019-03-17T03:37:12.487Z,50.6
2019-03-17T03:38:12.432Z,50.5
2019-03-17T03:39:12.382Z,50.5
2019-03-17T03:40:12.343Z,50.8
2019-03-17T03:41:12.267Z,51
2019-03-17T03:42:12.618Z,51.3
2019-03-17T03:43:12.529Z,51.4
2019-03-17T03:44:12.563Z,50.6
2019-03-17T03:45:12.571Z,50.8
2019-03-17T03:46:12.611Z,50.8
2019-03-17T03:48:12.268Z,50.3
2019-03-17T03:50:11.937Z,50.1
2019-03-17T03:52:12.037Z,49.8
2019-03-17T03:53:11.964Z,50.5
2019-03-17T03:54:11.858Z,50.6
2019-03-17T03:55:11.776Z,50.8
2019-03-17T03:56:11.699Z,50.9
2019-03-17T03:57:11.596Z,51
2019-03-17T03:58:11.486Z,51.2
2019-03-17T03:59:11.398Z,51.4
2019-03-17T04:00:11.489Z,51.3
2019-03-17T04:01:11.414Z,51.5
2019-03-17T04:02:11.813Z,51.5
2019-03-17T04:03:11.716Z,51.7
2019-03-17T04:04:11.612Z,51.4
2019-03-17T04:05:11.563Z,51.6
2019-03-17T04:06:27.671Z,51.1
2019-03-17T04:07:27.663Z,51.2
2019-03-17T04:08:27.607Z,50.8
2019-03-17T04:10:27.368Z,50.1
2019-03-17T04:11:27.346Z,49.4
2019-03-17T04:12:27.807Z,49.4
2019-03-17T04:13:27.824Z,49
2019-03-17T04:15:27.476Z,48.9
2019-03-17T04:16:27.438Z,48.8
2019-03-17T04:18:27.126Z,49.1
2019-03-17T04:19:27.032Z,49.4
2019-03-17T04:20:26.963Z,49.6
2019-03-17T04:21:26.945Z,49.6
2019-03-17T04:22:27.341Z,49.4
2019-03-17T04:23:27.299Z,49.2
2019-03-17T04:25:27.040Z,49.6
2019-03-17T04:26:27.037Z,49.8
2019-03-17T04:27:26.966Z,49.6
2019-03-17T04:28:26.916Z,49.6
2019-03-17T04:29:26.873Z,49.8
2019-03-17T04:31:26.537Z,50.1
2019-03-17T04:32:26.951Z,50
2019-03-17T04:33:26.859Z,49.9
2019-03-17T04:34:26.759Z,49.9
2019-03-17T04:35:26.668Z,49.6
2019-03-17T04:36:41.277Z,49.8
2019-03-17T04:38:44.653Z,49.5
2019-03-17T04:39:44.574Z,49.2
2019-03-17T04:40:44.467Z,49.5
2019-03-17T04:41:44.405Z,49.7
2019-03-17T04:42:44.786Z,49.4
2019-03-17T04:43:44.691Z,49.8
2019-03-17T04:44:44.581Z,49.8
2019-03-17T04:45:44.556Z,49.8
2019-03-17T04:46:44.449Z,50.1
2019-03-17T04:47:44.452Z,49.9
2019-03-17T04:48:44.669Z,49.9
2019-03-17T04:49:44.759Z,50.5
2019-03-17T04:50:44.687Z,50.5
2019-03-17T04:51:44.582Z,50.6
2019-03-17T04:52:44.908Z,50.8
2019-03-17T04:53:44.910Z,51.2
2019-03-17T04:54:44.797Z,51.4
2019-03-17T04:55:44.693Z,51.4
2019-03-17T04:56:44.583Z,51.3
2019-03-17T04:57:44.481Z,51.4
2019-03-17T04:58:44.361Z,51.6
2019-03-17T04:59:44.259Z,51.8
2019-03-17T05:00:44.157Z,51.9
2019-03-17T05:01:44.042Z,52.1
2019-03-17T05:02:44.411Z,52.2
2019-03-17T05:03:44.304Z,52.2
2019-03-17T05:04:44.218Z,52.2
2019-03-17T05:05:44.100Z,52.4
2019-03-17T05:06:53.766Z,52.3
2019-03-17T05:07:53.660Z,52.2
2019-03-17T05:08:53.564Z,52.3
2019-03-17T05:09:53.475Z,52.2
2019-03-17T05:10:53.391Z,52.2
2019-03-17T05:11:53.271Z,51.9
2019-03-17T05:12:53.617Z,52.2
2019-03-17T05:13:53.510Z,52.4
2019-03-17T05:14:53.403Z,52.3
2019-03-17T05:15:53.293Z,52.3
2019-03-17T05:16:53.213Z,52.4
2019-03-17T05:17:53.139Z,52.4
2019-03-17T05:18:53.028Z,52.5
2019-03-17T05:19:52.956Z,52.6
2019-03-17T05:20:52.853Z,53.3
2019-03-17T05:21:52.768Z,52.8
2019-03-17T05:22:53.214Z,52.9
2019-03-17T05:23:53.152Z,53.7
2019-03-17T05:24:53.063Z,53.1
2019-03-17T05:25:53.009Z,52.8
2019-03-17T05:27:52.635Z,52.5
2019-03-17T05:32:51.937Z,51.7
2019-03-17T05:33:51.839Z,52.2
2019-03-17T05:34:51.829Z,52.2
2019-03-17T05:35:51.777Z,52.4
2019-03-17T05:37:04.912Z,52.5
2019-03-17T05:38:06.916Z,52.5
2019-03-17T05:39:06.803Z,52.3
2019-03-17T05:40:06.752Z,52.5
2019-03-17T05:41:06.660Z,52.3
2019-03-17T05:42:06.616Z,52.4
2019-03-17T05:43:10.330Z,52.3
2019-03-17T05:44:10.224Z,52.3
2019-03-17T05:45:10.163Z,52.4
2019-03-17T05:46:10.091Z,52.3
2019-03-17T05:47:09.975Z,52.4
2019-03-17T05:48:09.859Z,52.5
2019-03-17T05:49:09.768Z,52.7
2019-03-17T05:50:09.653Z,52.9
2019-03-17T05:51:09.603Z,53.1
2019-03-17T05:52:09.545Z,53.3
2019-03-17T05:53:09.909Z,53.5
2019-03-17T05:54:09.795Z,53.7
2019-03-17T05:55:09.803Z,53.6
2019-03-17T05:56:09.697Z,53.7
2019-03-17T05:57:09.698Z,53.8
2019-03-17T05:58:09.595Z,53.6
2019-03-17T05:59:09.485Z,53.7
2019-03-17T06:00:09.389Z,53.7
2019-03-17T06:01:09.294Z,53.9
2019-03-17T06:02:09.181Z,54
2019-03-17T06:03:09.545Z,54.2
2019-03-17T06:04:09.461Z,54
2019-03-17T06:05:09.331Z,53.9
2019-03-17T06:06:09.209Z,52.9
2019-03-17T06:15:18.075Z,51.1
2019-03-17T06:17:17.703Z,50.8
2019-03-17T06:20:20.178Z,50.6
2019-03-17T06:23:19.993Z,49.9
2019-03-17T06:24:19.937Z,50.5
2019-03-17T06:25:19.831Z,50.7
2019-03-17T06:26:19.734Z,50.8
2019-03-17T06:27:19.620Z,50.8
2019-03-17T06:28:22.420Z,50.8
2019-03-17T06:29:22.347Z,51.1
2019-03-17T06:30:22.237Z,50.9
2019-03-17T06:31:22.132Z,50.8
2019-03-17T06:32:22.023Z,50.8
2019-03-17T06:33:22.362Z,51.2
2019-03-17T06:34:25.017Z,51.2
2019-03-17T06:35:24.911Z,51.2
2019-03-17T06:36:24.807Z,51
2019-03-17T06:37:31.975Z,51.2
2019-03-17T06:38:31.873Z,51.1
2019-03-17T06:39:31.789Z,51.2
2019-03-17T06:40:31.671Z,51.1
2019-03-17T06:41:31.609Z,51
2019-03-17T06:42:31.625Z,50.9
2019-03-17T06:43:31.939Z,51.2
2019-03-17T06:44:31.853Z,51.3
2019-03-17T06:45:31.757Z,51.5
2019-03-17T06:46:31.653Z,51.6
2019-03-17T06:47:31.575Z,51.7
2019-03-17T06:48:31.461Z,51.8
2019-03-17T06:49:31.369Z,51.7
2019-03-17T06:50:31.264Z,51.8
2019-03-17T06:51:31.176Z,51.7
2019-03-17T06:52:31.064Z,51.8
2019-03-17T06:53:31.366Z,51.8
2019-03-17T06:54:31.278Z,51.6
2019-03-17T06:55:31.185Z,51.8
2019-03-17T06:56:31.073Z,51.7
2019-03-17T06:57:31.025Z,51.3
2019-03-17T06:58:33.487Z,50.5
2019-03-17T06:59:33.399Z,50.2
2019-03-17T07:00:33.333Z,50
2019-03-17T07:01:33.225Z,49.3
2019-03-17T07:02:33.126Z,49.1
2019-03-17T07:03:33.457Z,49
2019-03-17T07:04:33.357Z,49.2
2019-03-17T07:05:33.257Z,48.7
2019-03-17T07:06:33.207Z,49.2
2019-03-17T07:07:45.422Z,47.9
2019-03-17T07:08:45.303Z,48.2
2019-03-17T07:09:45.196Z,48.1
2019-03-17T07:10:45.105Z,47.2
2019-03-17T07:11:45.015Z,47.3
2019-03-17T07:12:44.923Z,47.3
2019-03-17T07:13:45.245Z,47.3
2019-03-17T07:14:45.205Z,47.1
2019-03-17T07:15:45.130Z,47.4
2019-03-17T07:16:45.031Z,47.4
2019-03-17T07:17:44.933Z,47.7
2019-03-17T07:18:44.831Z,47.4
2019-03-17T07:19:44.727Z,47.5
2019-03-17T07:20:44.738Z,47.1
2019-03-17T07:21:44.625Z,46.8
2019-03-17T07:22:44.537Z,46.7
2019-03-17T07:23:44.865Z,46.4
2019-03-17T07:24:44.759Z,46.3
2019-03-17T07:25:44.649Z,46.1
2019-03-17T07:26:44.554Z,45.4
2019-03-17T07:27:44.505Z,45.7
2019-03-17T07:28:44.402Z,46.4
2019-03-17T07:29:44.300Z,45.6
2019-03-17T07:30:44.185Z,45.1
2019-03-17T07:31:44.090Z,45.3
2019-03-17T07:32:43.986Z,45.2
2019-03-17T07:33:44.348Z,45.2
2019-03-17T07:34:44.241Z,45.3
2019-03-17T07:35:47.056Z,44.9
2019-03-17T07:36:47.102Z,45.2
2019-03-17T07:37:59.933Z,44.9
2019-03-17T07:39:13.030Z,44.6
2019-03-17T07:40:12.932Z,45.3
2019-03-17T07:41:12.843Z,45.4
2019-03-17T07:42:12.761Z,45.8
2019-03-17T07:43:12.651Z,46.2
2019-03-17T07:44:13.021Z,45.6
2019-03-17T07:45:12.923Z,46.1
2019-03-17T07:46:12.815Z,46
2019-03-17T07:47:12.729Z,45.4
2019-03-17T07:48:12.653Z,45.6
2019-03-17T07:49:12.545Z,45.3
2019-03-17T07:50:12.456Z,45.3
2019-03-17T07:51:12.375Z,45.5
2019-03-17T07:52:12.343Z,45.4
2019-03-17T07:53:12.280Z,45.3
2019-03-17T07:54:12.722Z,45.4
2019-03-17T07:55:12.627Z,45.2
2019-03-17T07:56:12.560Z,44.9
2019-03-17T07:57:12.461Z,44.7
2019-03-17T07:58:12.417Z,44.3
2019-03-17T07:59:12.367Z,45.5
2019-03-17T08:00:12.331Z,45.1
2019-03-17T08:01:12.228Z,43.9
2019-03-17T08:02:12.214Z,44
2019-03-17T08:03:12.135Z,43.2
2019-03-17T08:04:12.527Z,43.1
2019-03-17T08:05:12.441Z,43.1
2019-03-17T08:06:12.346Z,43.1
2019-03-17T08:07:12.306Z,42.7
2019-03-17T08:08:12.250Z,42
2019-03-17T08:09:12.154Z,42
2019-03-17T08:10:12.082Z,42.8
2019-03-17T08:11:12.029Z,42.7
2019-03-17T08:12:11.932Z,42.7
2019-03-17T08:13:11.830Z,42.7
2019-03-17T08:14:12.201Z,42
2019-03-17T08:15:12.112Z,41.8
2019-03-17T08:16:12.034Z,41.3
2019-03-17T08:17:11.932Z,41.2
2019-03-17T08:18:11.910Z,41.4
2019-03-17T08:19:11.872Z,41.7
2019-03-17T08:20:11.771Z,39.9
2019-03-17T08:21:11.754Z,40.3
2019-03-17T08:22:11.658Z,40.8
2019-03-17T08:23:11.560Z,40
2019-03-17T08:24:11.960Z,40.2
2019-03-17T08:25:11.895Z,38.8
2019-03-17T08:26:11.806Z,39.2
2019-03-17T08:27:11.716Z,40
2019-03-17T08:28:11.597Z,40.4
2019-03-17T08:29:11.515Z,39
2019-03-17T08:30:11.423Z,39.9
2019-03-17T08:31:11.332Z,40.5
2019-03-17T08:32:11.230Z,40.2
2019-03-17T08:33:11.198Z,39.6
2019-03-17T08:34:11.526Z,39
2019-03-17T08:35:11.454Z,39.2
2019-03-17T08:36:11.379Z,38.7
2019-03-17T08:37:11.262Z,37.5
2019-03-17T08:38:22.897Z,39.1
2019-03-17T08:39:22.846Z,38.7
2019-03-17T08:40:22.765Z,39.1
2019-03-17T08:41:22.752Z,39.1
2019-03-17T08:42:22.688Z,38.8
2019-03-17T08:43:22.579Z,38.9
2019-03-17T08:44:24.667Z,39.1
2019-03-17T08:45:24.604Z,38.6
2019-03-17T08:46:24.493Z,39.3
2019-03-17T08:47:24.380Z,39.8
2019-03-17T08:48:24.285Z,40.1
2019-03-17T08:49:24.192Z,39.7
2019-03-17T08:50:24.104Z,38.5
2019-03-17T08:51:24.386Z,39.3
2019-03-17T08:52:24.498Z,38.7
2019-03-17T08:53:24.393Z,39.1
2019-03-17T08:54:24.808Z,38.5
2019-03-17T08:55:24.760Z,39.2
2019-03-17T08:56:24.668Z,38.2
2019-03-17T08:57:24.595Z,39
2019-03-17T08:58:24.505Z,38.9
2019-03-17T08:59:24.407Z,39
2019-03-17T09:00:24.321Z,37
2019-03-17T09:01:24.248Z,38.7
2019-03-17T09:02:24.136Z,39.3
2019-03-17T09:03:24.036Z,39.9
2019-03-17T09:04:24.377Z,38.9
2019-03-17T09:05:24.292Z,37.7
2019-03-17T09:06:24.186Z,38.5
2019-03-17T09:07:24.128Z,37.4
2019-03-17T09:08:36.108Z,36.1
2019-03-17T09:09:36.017Z,38.5
2019-03-17T09:10:36.005Z,38.5
2019-03-17T09:11:35.944Z,38.9
2019-03-17T09:12:35.862Z,38.3
2019-03-17T09:13:35.762Z,38.4
2019-03-17T09:14:36.112Z,38.3
2019-03-17T09:15:36.044Z,38.9
2019-03-17T09:16:36.003Z,39.5
2019-03-17T09:17:35.924Z,39.1
2019-03-17T09:18:35.826Z,38.2
2019-03-17T09:19:41.358Z,37.8
2019-03-17T09:20:41.292Z,39
2019-03-17T09:21:41.198Z,39.2
2019-03-17T09:22:41.292Z,37.5
2019-03-17T09:23:43.494Z,36.7
2019-03-17T09:24:47.742Z,37
2019-03-17T09:25:50.676Z,36.9
2019-03-17T09:26:50.596Z,37.5
2019-03-17T09:27:50.520Z,37.2
2019-03-17T09:28:50.510Z,35.5
2019-03-17T09:29:50.440Z,36
2019-03-17T09:30:50.354Z,35.8
2019-03-17T09:31:57.275Z,36.4
2019-03-17T09:33:02.744Z,36.9
2019-03-17T09:34:02.635Z,34.2
2019-03-17T09:35:03.004Z,35.4
2019-03-17T09:36:02.922Z,31.8
2019-03-17T09:37:02.833Z,34.7
2019-03-17T09:38:02.763Z,36
2019-03-17T09:39:02.672Z,36.7
2019-03-17T09:40:02.593Z,34.2
2019-03-17T09:41:02.494Z,35.7
2019-03-17T09:42:02.408Z,35.5
2019-03-17T09:43:02.344Z,37.6
2019-03-17T09:44:02.482Z,37
2019-03-17T09:45:02.816Z,36.2
2019-03-17T09:46:02.749Z,35.6
2019-03-17T09:47:03.464Z,36.2
2019-03-17T09:48:03.924Z,35.1
2019-03-17T09:49:03.848Z,35.9
2019-03-17T09:50:03.756Z,33.8
2019-03-17T09:51:03.687Z,36.1
2019-03-17T09:52:03.599Z,36.7
2019-03-17T09:53:03.530Z,34.5
2019-03-17T09:54:03.455Z,34.2
2019-03-17T09:55:04.166Z,35.2
2019-03-17T09:56:04.064Z,36.2
2019-03-17T09:57:04.213Z,35.7
2019-03-17T09:58:04.100Z,33.6
2019-03-17T09:59:04.026Z,33.9
2019-03-17T10:00:03.940Z,33.4
2019-03-17T10:01:03.843Z,33.5
2019-03-17T10:02:03.784Z,34.2
2019-03-17T10:03:03.687Z,33.3
2019-03-17T10:04:03.598Z,33
2019-03-17T10:05:03.950Z,32.5
2019-03-17T10:06:03.848Z,31.5
2019-03-17T10:07:03.746Z,31.3
2019-03-17T10:08:03.671Z,33.1
2019-03-17T10:09:03.572Z,33.3
2019-03-17T10:10:03.499Z,33.7
2019-03-17T10:11:03.444Z,32
2019-03-17T10:12:03.366Z,32
2019-03-17T10:13:03.307Z,32.8
2019-03-17T10:14:03.200Z,33.6
2019-03-17T10:15:03.679Z,31.7
2019-03-17T10:16:03.584Z,32.5
2019-03-17T10:17:03.532Z,31.3
2019-03-17T10:18:03.426Z,30.5
2019-03-17T10:19:03.344Z,32.2
2019-03-17T10:20:03.255Z,31.4
2019-03-17T10:21:03.172Z,32
2019-03-17T10:22:03.095Z,32.8
2019-03-17T10:23:03.069Z,34.2
2019-03-17T10:24:03.064Z,32.2
2019-03-17T10:25:03.456Z,33
2019-03-17T10:26:03.369Z,33.6
2019-03-17T10:27:03.263Z,33.5
2019-03-17T10:28:03.164Z,33.3
2019-03-17T10:29:03.060Z,32.4
2019-03-17T10:30:02.993Z,31.9
2019-03-17T10:31:02.898Z,32.8
2019-03-17T10:32:02.805Z,32.9
2019-03-17T10:33:02.699Z,32.7
2019-03-17T10:34:02.652Z,32.7
2019-03-17T10:35:02.998Z,32.8
2019-03-17T10:36:02.910Z,32.4
2019-03-17T10:37:02.835Z,30.6
2019-03-17T10:38:02.722Z,31.8
2019-03-17T10:39:13.405Z,32.1
2019-03-17T10:40:13.329Z,31.5
2019-03-17T10:41:13.365Z,30.7
2019-03-17T10:42:13.269Z,30.7
2019-03-17T10:43:13.186Z,31.8
2019-03-17T10:44:13.097Z,32.2
2019-03-17T10:45:13.459Z,30.6
2019-03-17T10:46:13.377Z,32
2019-03-17T10:47:13.304Z,32.8
2019-03-17T10:48:13.244Z,31.7
2019-03-17T10:49:13.133Z,29.7
2019-03-17T10:50:13.090Z,30
2019-03-17T10:51:12.997Z,31.2
2019-03-17T10:52:12.887Z,30.9
2019-03-17T10:53:12.788Z,30.9
2019-03-17T10:54:15.617Z,31.5
2019-03-17T10:55:16.011Z,31.2
2019-03-17T10:56:15.910Z,32.7
2019-03-17T10:57:15.831Z,30.9
2019-03-17T10:58:15.727Z,30.4
2019-03-17T10:59:15.649Z,31
2019-03-17T11:00:15.601Z,29.8
2019-03-17T11:01:15.541Z,29.7
2019-03-17T11:02:15.456Z,31.2
2019-03-17T11:03:15.359Z,31.4
2019-03-17T11:04:15.269Z,31.1
2019-03-17T11:05:15.592Z,30.2
2019-03-17T11:06:15.556Z,30.4
2019-03-17T11:07:15.451Z,29.9
2019-03-17T11:08:15.380Z,30.7
2019-03-17T11:09:26.288Z,30.7
2019-03-17T11:10:26.241Z,30.5
2019-03-17T11:11:26.146Z,30.7
2019-03-17T11:12:26.097Z,30.8
2019-03-17T11:13:26.023Z,29.3
2019-03-17T11:14:25.931Z,30
2019-03-17T11:15:26.286Z,30
2019-03-17T11:16:26.240Z,30.6
2019-03-17T11:17:26.204Z,31.2
2019-03-17T11:18:26.074Z,30.7
2019-03-17T11:19:26.531Z,31
2019-03-17T11:20:26.601Z,29.3
2019-03-17T11:21:26.527Z,30.2
2019-03-17T11:22:26.487Z,30.2
2019-03-17T11:23:26.397Z,29.9
2019-03-17T11:24:26.313Z,30.7
2019-03-17T11:25:26.671Z,31
2019-03-17T11:26:26.556Z,29.6
2019-03-17T11:27:26.455Z,30.5
2019-03-17T11:28:26.450Z,31.1
2019-03-17T11:29:26.353Z,31.2
2019-03-17T11:30:29.413Z,31.6
2019-03-17T11:31:29.328Z,31.9
2019-03-17T11:32:29.256Z,32.2
2019-03-17T11:33:29.164Z,32
2019-03-17T11:34:29.069Z,32.5
2019-03-17T11:35:29.423Z,32.4
2019-03-17T11:36:29.339Z,31.7
2019-03-17T11:37:29.457Z,29.6
2019-03-17T11:38:29.399Z,29.8
2019-03-17T11:39:38.815Z,29.5
2019-03-17T11:40:38.735Z,29.8
2019-03-17T11:41:38.705Z,30
2019-03-17T11:42:38.641Z,30.9
2019-03-17T11:43:38.553Z,31
2019-03-17T11:44:38.506Z,30.9
2019-03-17T11:45:38.942Z,31.6
2019-03-17T11:46:38.867Z,32.6
2019-03-17T11:47:38.781Z,33.3
2019-03-17T11:48:38.705Z,33.5
2019-03-17T11:49:38.625Z,32.5
2019-03-17T11:50:38.546Z,32.4
2019-03-17T11:51:38.456Z,32.3
2019-03-17T11:52:38.369Z,30.3
2019-03-17T11:53:38.282Z,30.6
2019-03-17T11:54:38.195Z,29.7
2019-03-17T11:55:38.523Z,30.1
2019-03-17T11:56:38.422Z,31.5
2019-03-17T11:57:38.315Z,32.1
2019-03-17T11:58:38.562Z,32.3
2019-03-17T11:59:38.472Z,31.6
2019-03-17T12:00:38.369Z,31.2
2019-03-17T12:01:38.291Z,30.1
2019-03-17T12:02:38.196Z,30.9
2019-03-17T12:03:38.189Z,32
2019-03-17T12:04:38.089Z,32.1
2019-03-17T12:05:38.461Z,32.7
2019-03-17T12:06:38.365Z,32.1
2019-03-17T12:07:38.271Z,32
2019-03-17T12:08:38.228Z,31.1
2019-03-17T12:09:51.109Z,32
2019-03-17T12:10:51.019Z,31.2
2019-03-17T12:11:50.927Z,32.9
2019-03-17T12:12:50.880Z,33.4
2019-03-17T12:13:50.819Z,31.5
2019-03-17T12:14:50.743Z,32
2019-03-17T12:15:51.145Z,31.7
2019-03-17T12:16:51.127Z,32.9
2019-03-17T12:17:51.052Z,32.9
2019-03-17T12:18:50.949Z,33.7
2019-03-17T12:19:50.873Z,32.5
2019-03-17T12:20:50.771Z,32.1
2019-03-17T12:21:50.736Z,32.2
2019-03-17T12:22:50.685Z,32.4
2019-03-17T12:23:50.653Z,33
2019-03-17T12:24:50.565Z,33.2
2019-03-17T12:25:50.949Z,33.3
2019-03-17T12:26:50.924Z,33.6
2019-03-17T12:27:50.847Z,33
2019-03-17T12:28:50.758Z,32.6
2019-03-17T12:29:50.679Z,33.3
2019-03-17T12:30:50.597Z,33.8
2019-03-17T12:31:50.506Z,33
2019-03-17T12:32:50.421Z,33
2019-03-17T12:33:50.329Z,32.3
2019-03-17T12:34:50.277Z,32.2
2019-03-17T12:35:50.660Z,32.8
2019-03-17T12:36:50.611Z,33.4
2019-03-17T12:37:50.494Z,33.2
2019-03-17T12:38:50.398Z,34.1
2019-03-17T12:40:03.805Z,35.3
2019-03-17T12:41:03.714Z,34.1
2019-03-17T12:42:03.627Z,32.8
2019-03-17T12:43:03.533Z,33.1
2019-03-17T12:44:03.434Z,33.3
2019-03-17T12:45:03.375Z,35.2
2019-03-17T12:46:03.754Z,35.6
2019-03-17T12:47:03.655Z,35.6
2019-03-17T12:48:03.576Z,35.2
2019-03-17T12:49:03.521Z,34
2019-03-17T12:50:03.412Z,34.1
2019-03-17T12:51:03.347Z,33.5
2019-03-17T12:52:03.261Z,33.3
2019-03-17T12:53:03.206Z,33.3
2019-03-17T12:54:03.161Z,34.4
2019-03-17T12:55:03.063Z,34.4
2019-03-17T12:56:03.427Z,33.9
2019-03-17T12:57:03.339Z,34.5
2019-03-17T12:58:03.234Z,34.4
2019-03-17T12:59:03.175Z,34.5
2019-03-17T13:00:03.099Z,34.9
2019-03-17T13:01:03.022Z,33.4
2019-03-17T13:02:02.939Z,34.1
2019-03-17T13:03:02.861Z,34.7
2019-03-17T13:04:03.068Z,34.2
2019-03-17T13:05:03.014Z,33.6
2019-03-17T13:06:03.605Z,35
2019-03-17T13:07:03.634Z,34.2
2019-03-17T13:08:04.040Z,34.2
2019-03-17T13:09:03.960Z,33.3
2019-03-17T13:10:17.045Z,33.7
2019-03-17T13:11:16.967Z,33.3
2019-03-17T13:12:16.858Z,33.4
2019-03-17T13:13:16.981Z,33.9
2019-03-17T13:14:16.904Z,33.9
2019-03-17T13:15:16.827Z,34
2019-03-17T13:16:17.209Z,34
2019-03-17T13:17:17.187Z,33.5
2019-03-17T13:18:17.092Z,32.4
2019-03-17T13:19:16.985Z,32.9
2019-03-17T13:20:16.883Z,32.7
2019-03-17T13:21:16.787Z,34
2019-03-17T13:22:16.723Z,34.4
2019-03-17T13:23:16.631Z,33.5
2019-03-17T13:24:16.525Z,34
2019-03-17T13:25:16.433Z,33.5
2019-03-17T13:26:17.795Z,33.4
2019-03-17T13:27:17.729Z,33.1
2019-03-17T13:28:17.634Z,33.3
2019-03-17T13:29:17.530Z,33.7
2019-03-17T13:30:17.421Z,34.3
2019-03-17T13:31:17.333Z,34.2
2019-03-17T13:32:20.273Z,33.5
2019-03-17T13:33:20.212Z,33.1
2019-03-17T13:34:20.155Z,33.2
2019-03-17T13:35:20.057Z,33.4
2019-03-17T13:36:20.421Z,33.5
2019-03-17T13:37:20.327Z,34.3
2019-03-17T13:38:20.235Z,34.3
2019-03-17T13:39:20.149Z,34.4
2019-03-17T13:40:30.680Z,34.5
2019-03-17T13:41:30.594Z,34
2019-03-17T13:42:30.493Z,33.8
2019-03-17T13:43:30.433Z,34.2
2019-03-17T13:44:30.336Z,34.8
2019-03-17T13:45:30.267Z,34.1
2019-03-17T13:46:30.759Z,33.8
2019-03-17T13:47:30.696Z,34
2019-03-17T13:48:30.628Z,34.2
2019-03-17T13:49:30.565Z,34.3
2019-03-17T13:50:36.379Z,34.6
2019-03-17T13:51:36.289Z,33.5
2019-03-17T13:52:37.427Z,33.8
2019-03-17T13:53:37.425Z,33.5
2019-03-17T13:54:37.374Z,34.5
2019-03-17T13:55:37.315Z,35.2
2019-03-17T13:56:37.699Z,34.1
2019-03-17T13:57:37.629Z,33.7